Time;durP1;ratioP1;P1;durP2;ratioP2;P2;SDS_P1;SDS_P2;PMS_P1;PMS_P2;Temp;Humidity;BMP_temperature;BMP_pressure;BME280_temperature;BME280_humidity;BME280_pressure;Samples;Min_cycle;Max_cycle;Signal;HPM_P1;HPM_P2
2024/04/03 00:01:30;;;;;;;3.70;0.90;;;;;;;9.07;100.00;98070.55;109460;1253;59858;-75
2024/04/03 00:03:56;;;;;;;1.70;1.10;;;;;;;9.02;100.00;98070.52;109487;1252;59876;-74
2024/04/03 00:06:23;;;;;;;2.80;1.10;;;;;;;8.96;100.00;98066.23;109481;1253;60256;-75
2024/04/03 00:08:49;;;;;;;2.50;0.90;;;;;;;8.91;100.00;98069.94;109476;1253;59927;-76
2024/04/03 00:11:16;;;;;;;2.20;1.60;;;;;;;8.89;100.00;98069.56;109505;1252;59780;-74
2024/04/03 00:13:42;;;;;;;3.20;1.20;;;;;;;8.87;100.00;98070.27;109517;1254;59790;-75
2024/04/03 00:16:09;;;;;;;2.40;1.10;;;;;;;8.85;100.00;98075.91;109505;1252;59820;-75
2024/04/03 00:18:35;;;;;;;1.30;0.80;;;;;;;8.83;100.00;98074.96;109517;1253;60321;-74
2024/04/03 00:21:03;;;;;;;1.00;0.60;;;;;;;8.80;100.00;98073.06;109445;1253;60282;-76
2024/04/03 00:23:30;;;;;;;2.00;0.90;;;;;;;8.77;100.00;98073.66;109437;1253;59801;-75
2024/04/03 00:25:59;;;;;;;3.60;1.40;;;;;;;8.75;100.00;98074.50;109464;1253;59807;-77
2024/04/03 00:28:26;;;;;;;4.30;1.30;;;;;;;8.72;100.00;98078.22;109455;1253;67042;-77
2024/04/03 00:30:53;;;;;;;2.30;1.20;;;;;;;8.69;100.00;98079.89;109506;1253;60263;-73
2024/04/03 00:33:20;;;;;;;4.60;1.20;;;;;;;8.66;100.00;98076.45;109365;1253;62521;-75
2024/04/03 00:35:57;;;;;;;2.30;1.00;;;;;;;8.65;100.00;98075.07;109368;1252;60195;-75
2024/04/03 00:38:25;;;;;;;3.70;1.30;;;;;;;8.65;100.00;98077.22;109493;1252;59982;-75
2024/04/03 00:41:00;;;;;;;3.50;1.50;;;;;;;8.64;100.00;98080.27;109470;1253;66529;-74
2024/04/03 00:43:27;;;;;;;2.70;1.00;;;;;;;8.64;100.00;98083.52;109498;1253;59724;-76
2024/04/03 00:45:56;;;;;;;2.80;1.10;;;;;;;8.63;100.00;98081.94;109486;1253;64061;-75
2024/04/03 00:48:23;;;;;;;1.90;1.20;;;;;;;8.63;100.00;98080.73;109475;1253;59795;-75
2024/04/03 00:50:51;;;;;;;3.10;1.20;;;;;;;8.61;100.00;98079.11;109459;1253;59719;-74
2024/04/03 00:53:18;;;;;;;3.10;1.00;;;;;;;8.58;100.00;98084.22;109254;1253;66913;-75
2024/04/03 00:55:45;;;;;;;3.30;1.00;;;;;;;8.57;100.00;98083.27;109499;1253;60100;-75
2024/04/03 00:58:11;;;;;;;3.60;1.10;;;;;;;8.56;100.00;98084.39;109437;1253;62515;-74
2024/04/03 01:00:38;;;;;;;2.80;1.10;;;;;;;8.55;100.00;98082.35;109480;1253;59838;-74
2024/04/03 01:03:05;;;;;;;2.80;0.90;;;;;;;8.53;100.00;98082.10;109519;1253;59774;-74
2024/04/03 01:05:33;;;;;;;1.50;1.20;;;;;;;8.52;100.00;98082.37;109498;1253;66988;-75
2024/04/03 01:07:59;;;;;;;3.70;1.30;;;;;;;8.52;100.00;98082.42;109516;1253;60219;-75
2024/04/03 01:10:26;;;;;;;2.70;1.20;;;;;;;8.52;100.00;98078.53;109313;1253;62598;-75
2024/04/03 01:12:54;;;;;;;1.30;0.90;;;;;;;8.53;100.00;98080.58;109174;1253;59812;-74
2024/04/03 01:15:22;;;;;;;2.80;1.00;;;;;;;8.52;100.00;98077.75;109512;1253;59926;-74
2024/04/03 01:17:48;;;;;;;2.50;1.20;;;;;;;8.52;100.00;98081.86;109353;1253;65291;-75
2024/04/03 01:20:16;;;;;;;2.80;1.30;;;;;;;8.51;100.00;98080.54;109374;1253;60577;-74
2024/04/03 01:22:43;;;;;;;2.30;1.20;;;;;;;8.49;100.00;98079.77;109480;1253;65165;-75
2024/04/03 01:25:09;;;;;;;1.90;0.70;;;;;;;8.52;100.00;98078.66;109457;1253;59821;-76
2024/04/03 01:27:36;;;;;;;1.90;1.00;;;;;;;8.53;100.00;98079.46;109493;1254;60654;-74
2024/04/03 01:30:03;;;;;;;1.80;0.90;;;;;;;8.53;100.00;98084.75;109477;1253;60205;-77
2024/04/03 01:32:29;;;;;;;5.20;1.10;;;;;;;8.55;100.00;98084.50;109490;1254;59781;-76
2024/04/03 01:34:55;;;;;;;2.10;0.90;;;;;;;8.57;100.00;98085.58;109410;1253;59874;-75
2024/04/03 01:37:22;;;;;;;1.60;0.90;;;;;;;8.61;100.00;98085.10;109202;1252;59810;-74
2024/04/03 01:39:48;;;;;;;2.00;1.10;;;;;;;8.64;100.00;98083.45;109491;1253;60153;-75
2024/04/03 01:42:16;;;;;;;1.70;1.00;;;;;;;8.67;100.00;98084.48;109505;1253;59826;-74
2024/04/03 01:44:42;;;;;;;1.20;0.90;;;;;;;8.69;100.00;98087.52;109455;1253;61334;-74
2024/04/03 01:47:08;;;;;;;1.40;0.70;;;;;;;8.72;100.00;98088.73;109484;1253;60056;-76
2024/04/03 01:49:35;;;;;;;3.20;1.10;;;;;;;8.76;100.00;98092.11;109471;1253;59790;-75
2024/04/03 01:52:01;;;;;;;1.50;0.90;;;;;;;8.80;100.00;98087.93;109455;1253;59787;-75
2024/04/03 01:54:27;;;;;;;3.80;1.00;;;;;;;8.82;100.00;98081.12;109502;1253;59817;-75
2024/04/03 01:56:54;;;;;;;2.50;1.20;;;;;;;8.83;100.00;98080.33;109472;1254;59903;-74
2024/04/03 01:59:21;;;;;;;3.10;0.90;;;;;;;8.84;100.00;98082.85;109445;1252;59916;-75
2024/04/03 02:01:48;;;;;;;4.10;1.20;;;;;;;8.84;100.00;98077.73;109181;1254;59843;-74
2024/04/03 02:04:14;;;;;;;2.80;1.00;;;;;;;8.83;100.00;98071.13;109504;1253;59669;-74
2024/04/03 02:06:41;;;;;;;1.60;1.00;;;;;;;8.82;100.00;98075.10;109487;1253;65690;-75
2024/04/03 02:09:07;;;;;;;2.40;1.20;;;;;;;8.81;100.00;98076.23;109509;1253;59793;-74
2024/04/03 02:11:34;;;;;;;1.90;1.00;;;;;;;8.81;100.00;98071.41;109245;1253;59857;-75
2024/04/03 02:14:00;;;;;;;1.50;1.00;;;;;;;8.83;100.00;98072.55;109410;1256;60169;-74
2024/04/03 02:16:30;;;;;;;3.00;0.90;;;;;;;8.83;100.00;98072.48;109387;1253;59908;-75
2024/04/03 02:18:59;;;;;;;1.80;1.10;;;;;;;8.85;100.00;98076.06;109427;1253;66920;-76
2024/04/03 02:21:26;;;;;;;3.10;1.00;;;;;;;8.89;100.00;98075.60;109488;1256;59871;-74
2024/04/03 02:23:52;;;;;;;2.60;0.90;;;;;;;8.93;100.00;98071.07;109463;1253;59782;-75
2024/04/03 02:26:18;;;;;;;2.50;0.80;;;;;;;8.94;100.00;98073.40;109455;1253;59847;-74
2024/04/03 02:28:45;;;;;;;2.40;0.90;;;;;;;8.95;100.00;98071.42;109191;1253;59935;-74
2024/04/03 02:31:11;;;;;;;1.90;0.80;;;;;;;8.95;100.00;98068.21;109493;1253;60092;-74
2024/04/03 02:33:37;;;;;;;1.30;0.90;;;;;;;8.97;100.00;98068.41;109521;1253;59847;-75
2024/04/03 02:36:11;;;;;;;4.70;1.00;;;;;;;9.00;100.00;98066.45;109469;1254;59988;-74
2024/04/03 02:38:37;;;;;;;2.90;1.20;;;;;;;9.02;100.00;98063.13;109192;1253;59802;-75
2024/04/03 02:41:04;;;;;;;2.00;0.90;;;;;;;9.04;100.00;98059.11;109479;1253;59835;-73
2024/04/03 02:43:31;;;;;;;3.20;1.00;;;;;;;9.06;100.00;98061.40;109373;1253;59869;-75
2024/04/03 02:45:57;;;;;;;1.90;1.10;;;;;;;9.05;100.00;98065.71;109467;1254;60245;-73
2024/04/03 02:48:24;;;;;;;1.90;0.70;;;;;;;9.01;100.00;98065.11;109493;1253;63816;-75
2024/04/03 02:51:00;;;;;;;2.90;1.00;;;;;;;8.96;100.00;98061.61;109460;1254;59794;-74
2024/04/03 02:53:26;;;;;;;2.00;0.90;;;;;;;8.89;100.00;98056.23;109475;1253;59777;-74
2024/04/03 02:55:52;;;;;;;2.50;0.80;;;;;;;8.86;100.00;98055.66;109480;1253;60229;-75
2024/04/03 02:58:19;;;;;;;2.00;0.70;;;;;;;8.84;100.00;98056.86;109169;1253;59927;-76
2024/04/03 03:00:45;;;;;;;1.50;0.80;;;;;;;8.84;100.00;98057.94;109505;1253;59980;-76
2024/04/03 03:03:11;;;;;;;2.80;1.20;;;;;;;8.85;100.00;98057.27;109468;1253;60047;-75
2024/04/03 03:05:38;;;;;;;5.30;1.40;;;;;;;8.88;100.00;98051.23;109499;1253;59923;-74
2024/04/03 03:08:05;;;;;;;2.70;0.80;;;;;;;8.91;100.00;98047.46;109533;1252;60454;-75
2024/04/03 03:10:31;;;;;;;2.80;1.30;;;;;;;8.95;100.00;98047.90;109176;1252;59812;-75
2024/04/03 03:12:59;;;;;;;1.50;0.90;;;;;;;8.98;100.00;98044.10;109460;1253;59809;-76
2024/04/03 03:15:26;;;;;;;4.60;1.30;;;;;;;9.01;100.00;98046.17;109475;1254;59775;-76
2024/04/03 03:17:52;;;;;;;2.00;1.10;;;;;;;9.02;100.00;98042.57;109502;1252;59844;-75
2024/04/03 03:20:18;;;;;;;1.90;0.80;;;;;;;9.04;100.00;98042.95;109379;1254;59799;-75
2024/04/03 03:22:45;;;;;;;1.20;0.80;;;;;;;9.06;100.00;98038.33;109523;1254;60076;-76
2024/04/03 03:25:11;;;;;;;3.10;1.00;;;;;;;9.08;100.00;98041.08;109503;1253;59897;-75
2024/04/03 03:27:38;;;;;;;2.10;0.80;;;;;;;9.07;100.00;98035.64;109481;1252;60049;-75
2024/04/03 03:30:05;;;;;;;3.80;1.10;;;;;;;9.01;100.00;98034.11;109383;1253;59918;-76
2024/04/03 03:32:31;;;;;;;1.80;0.70;;;;;;;8.95;100.00;98034.38;109170;1253;59886;-75
2024/04/03 03:34:57;;;;;;;1.60;0.90;;;;;;;8.92;100.00;98030.38;109504;1252;59767;-74
2024/04/03 03:37:23;;;;;;;2.30;0.90;;;;;;;8.90;100.00;98033.55;109157;1253;59934;-75
2024/04/03 03:39:50;;;;;;;1.40;0.80;;;;;;;8.89;100.00;98033.77;109487;1253;59795;-75
2024/04/03 03:42:18;;;;;;;2.70;1.10;;;;;;;8.89;100.00;98036.67;109544;1253;59782;-75
2024/04/03 03:44:44;;;;;;;1.60;1.10;;;;;;;8.88;100.00;98035.27;109348;1258;65846;-76
2024/04/03 03:47:10;;;;;;;1.50;1.00;;;;;;;8.88;100.00;98037.94;109516;1256;59833;-75
2024/04/03 03:52:37;;;;;;;4.10;0.80;;;;;;;8.87;100.00;98044.55;109481;1254;59848;-75
2024/04/03 03:55:04;;;;;;;3.00;1.00;;;;;;;8.89;100.00;98044.96;109510;1252;60223;-76
2024/04/03 03:57:30;;;;;;;2.30;1.00;;;;;;;8.91;100.00;98044.47;109510;1253;66702;-75
2024/04/03 03:59:57;;;;;;;1.80;1.00;;;;;;;8.92;100.00;98041.89;109494;1256;59786;-77
2024/04/03 04:02:25;;;;;;;3.70;1.20;;;;;;;8.91;100.00;98045.67;109420;1253;63962;-75
2024/04/03 04:04:52;;;;;;;2.80;0.90;;;;;;;8.91;100.00;98052.98;109486;1253;59821;-76
2024/04/03 04:07:19;;;;;;;1.80;0.80;;;;;;;8.89;100.00;98050.95;109510;1253;59677;-76
2024/04/03 04:09:50;;;;;;;2.30;1.00;;;;;;;8.87;100.00;98049.89;109447;1256;66891;-76
2024/04/03 04:12:20;;;;;;;2.10;0.80;;;;;;;8.84;100.00;98053.84;109468;1253;59939;-74
2024/04/03 04:14:53;;;;;;;2.20;0.90;;;;;;;8.81;100.00;98057.80;109487;1254;64079;-77
2024/04/03 04:17:22;;;;;;;2.80;0.90;;;;;;;8.76;100.00;98054.55;109475;1253;59847;-76
2024/04/03 04:19:49;;;;;;;3.60;1.40;;;;;;;8.74;100.00;98054.72;109450;1256;59827;-75
2024/04/03 04:22:16;;;;;;;1.80;1.00;;;;;;;8.74;100.00;98058.80;109506;1254;66570;-76
2024/04/03 04:24:45;;;;;;;1.70;0.90;;;;;;;8.71;100.00;98059.89;109479;1252;59798;-75
2024/04/03 04:27:12;;;;;;;1.60;0.80;;;;;;;8.70;100.00;98061.39;109321;1253;62540;-76
2024/04/03 04:29:42;;;;;;;2.00;0.80;;;;;;;8.68;100.00;98056.62;109323;1254;59784;-75
2024/04/03 04:32:12;;;;;;;1.20;0.70;;;;;;;8.67;100.00;98058.84;109399;1252;59831;-75
2024/04/03 04:34:41;;;;;;;3.10;0.80;;;;;;;8.64;100.00;98063.44;109448;1253;66456;-77
2024/04/03 04:37:08;;;;;;;4.50;1.30;;;;;;;8.63;100.00;98069.55;109496;1254;59808;-77
2024/04/03 04:39:35;;;;;;;3.00;1.10;;;;;;;8.64;100.00;98068.05;109451;1254;62822;-76
2024/04/03 04:42:02;;;;;;;1.90;0.90;;;;;;;8.67;100.00;98062.50;109479;1253;59705;-76
2024/04/03 04:44:29;;;;;;;1.50;0.90;;;;;;;8.71;100.00;98066.64;109497;1253;59761;-76
2024/04/03 04:46:56;;;;;;;1.90;1.00;;;;;;;8.76;100.00;98068.39;109086;1260;66922;-75
2024/04/03 04:49:23;;;;;;;3.40;0.80;;;;;;;8.80;100.00;98065.80;109285;1254;59918;-75
2024/04/03 04:51:50;;;;;;;1.40;1.00;;;;;;;8.84;100.00;98075.23;109496;1254;62874;-73
2024/04/03 04:54:17;;;;;;;2.60;1.10;;;;;;;8.86;100.00;98074.42;109477;1253;59847;-75
2024/04/03 04:56:47;;;;;;;3.10;0.90;;;;;;;8.88;100.00;98068.60;109498;1254;59678;-74
2024/04/03 04:59:13;;;;;;;2.00;0.90;;;;;;;8.89;100.00;98067.45;109512;1254;66955;-76
2024/04/03 05:01:41;;;;;;;2.20;1.10;;;;;;;8.90;100.00;98070.92;109493;1253;59874;-75
2024/04/03 05:04:09;;;;;;;4.40;1.60;;;;;;;8.92;100.00;98073.26;109338;1253;63964;-75
2024/04/03 05:06:36;;;;;;;2.40;1.10;;;;;;;9.06;100.00;98075.38;109468;1253;59774;-76
2024/04/03 05:09:03;;;;;;;2.00;0.80;;;;;;;9.78;100.00;98073.52;109455;1254;59682;-75
2024/04/03 05:11:29;;;;;;;2.60;0.80;;;;;;;9.96;100.00;98078.34;109481;1254;66732;-76
2024/04/03 05:13:55;;;;;;;2.40;1.00;;;;;;;9.90;100.00;98082.18;109485;1253;59842;-74
2024/04/03 05:16:22;;;;;;;3.10;1.20;;;;;;;9.82;100.00;98081.39;109170;1257;59917;-76
2024/04/03 05:18:50;;;;;;;1.40;1.10;;;;;;;9.74;100.00;98084.34;109308;1253;60268;-76
2024/04/03 05:21:19;;;;;;;2.90;0.90;;;;;;;9.71;100.00;98082.78;109485;1253;60020;-78
2024/04/03 05:23:46;;;;;;;2.80;1.70;;;;;;;9.73;100.00;98083.20;109479;1253;66488;-77
2024/04/03 05:26:15;;;;;;;2.30;0.80;;;;;;;9.74;100.00;98085.95;109477;1253;61239;-77
2024/04/03 05:28:41;;;;;;;3.70;1.10;;;;;;;9.78;100.00;98086.36;109325;1253;145783;-76
2024/04/03 05:31:10;;;;;;;3.70;1.00;;;;;;;9.81;100.00;98086.65;109452;1254;59864;-75
2024/04/03 05:33:38;;;;;;;3.20;1.20;;;;;;;9.97;100.00;98092.81;109468;1253;59920;-76
2024/04/03 05:36:06;;;;;;;4.00;1.10;;;;;;;10.30;100.00;98093.45;109207;1254;66977;-74
2024/04/03 05:38:33;;;;;;;2.10;1.10;;;;;;;10.23;100.00;98104.98;109489;1254;59974;-76
2024/04/03 05:41:00;;;;;;;3.00;1.00;;;;;;;10.26;100.00;98108.45;109465;1253;64287;-75
2024/04/03 05:43:27;;;;;;;2.30;0.80;;;;;;;10.45;100.00;98104.14;109486;1253;59791;-76
2024/04/03 05:45:55;;;;;;;2.20;1.10;;;;;;;10.55;100.00;98103.60;109482;1253;59653;-75
2024/04/03 05:48:25;;;;;;;2.00;0.90;;;;;;;10.45;100.00;98102.19;109500;1253;65930;-74
2024/04/03 05:51:03;;;;;;;3.30;0.70;;;;;;;10.39;100.00;98102.15;109501;1253;59870;-75
2024/04/03 05:53:30;;;;;;;1.60;0.80;;;;;;;10.34;100.00;98100.19;109445;1253;64124;-75
2024/04/03 05:55:58;;;;;;;2.50;0.90;;;;;;;10.31;100.00;98102.75;109512;1252;59756;-75
2024/04/03 05:58:26;;;;;;;2.20;1.00;;;;;;;10.26;100.00;98106.14;109494;1252;59832;-75
2024/04/03 06:00:53;;;;;;;4.00;1.10;;;;;;;10.22;100.00;98103.25;109483;1253;65664;-75
2024/04/03 06:03:20;;;;;;;2.30;1.10;;;;;;;10.22;100.00;98102.23;109522;1254;59811;-75
2024/04/03 06:05:54;;;;;;;2.70;1.00;;;;;;;10.22;100.00;98104.20;109452;1254;63859;-75
2024/04/03 06:08:21;;;;;;;2.60;0.90;;;;;;;10.23;100.00;98102.30;109461;1254;60032;-74
2024/04/03 06:10:54;;;;;;;3.30;1.40;;;;;;;10.25;100.00;98101.13;109217;1253;59839;-76
2024/04/03 06:13:20;;;;;;;1.50;0.90;;;;;;;10.28;100.00;98100.00;109472;1253;66832;-75
2024/04/03 06:15:47;;;;;;;2.60;0.80;;;;;;;10.31;100.00;98099.52;109489;1253;59966;-76
2024/04/03 06:18:14;;;;;;;2.00;0.70;;;;;;;10.38;100.00;98101.85;109490;1253;62931;-75
2024/04/03 06:20:40;;;;;;;3.60;1.10;;;;;;;10.44;100.00;98097.45;109423;1253;59788;-75
2024/04/03 06:23:10;;;;;;;3.90;0.90;;;;;;;10.52;100.00;98096.83;109516;1254;59848;-75
2024/04/03 06:25:37;;;;;;;3.50;0.80;;;;;;;10.61;100.00;98095.76;109217;1253;68092;-76
2024/04/03 06:28:06;;;;;;;3.60;0.90;;;;;;;10.67;100.00;98093.09;109503;1253;59757;-74
2024/04/03 06:30:33;;;;;;;1.80;0.90;;;;;;;10.76;100.00;98097.00;109486;1253;64117;-76
2024/04/03 06:32:59;;;;;;;3.00;1.40;;;;;;;10.83;100.00;98101.23;109486;1253;59819;-76
2024/04/03 06:35:26;;;;;;;1.90;0.90;;;;;;;10.85;100.00;98102.85;109492;1253;59797;-76
2024/04/03 06:37:52;;;;;;;4.00;1.30;;;;;;;10.88;100.00;98104.02;109480;1254;59820;-75
2024/04/03 06:40:19;;;;;;;3.60;1.50;;;;;;;10.96;100.00;98108.09;109470;1253;59748;-75
2024/04/03 06:42:45;;;;;;;2.70;1.10;;;;;;;11.11;100.00;98102.61;109507;1253;62625;-75
2024/04/03 06:45:12;;;;;;;3.40;1.90;;;;;;;11.24;100.00;98103.84;109322;1253;60104;-75
2024/04/03 06:47:38;;;;;;;2.30;0.90;;;;;;;11.32;100.00;98108.48;109479;1253;59922;-75
2024/04/03 06:50:05;;;;;;;2.20;1.10;;;;;;;11.45;100.00;98110.77;109510;1253;59947;-75
2024/04/03 06:52:31;;;;;;;2.80;1.20;;;;;;;11.61;100.00;98110.83;109479;1253;61309;-75
2024/04/03 06:54:58;;;;;;;1.50;0.80;;;;;;;11.61;100.00;98103.52;109477;1253;64030;-74
2024/04/03 06:57:24;;;;;;;5.60;1.60;;;;;;;11.54;100.00;98103.43;109441;1253;61586;-74
2024/04/03 06:59:50;;;;;;;4.20;2.30;;;;;;;11.53;100.00;98101.23;109387;1253;59847;-75
2024/04/03 07:02:17;;;;;;;5.70;1.90;;;;;;;11.57;100.00;98092.69;109531;1252;59827;-75
2024/04/03 07:04:43;;;;;;;3.00;1.30;;;;;;;11.58;100.00;98092.27;109537;1253;59805;-75
2024/04/03 07:07:10;;;;;;;2.60;1.00;;;;;;;11.57;100.00;98099.42;109464;1253;59976;-75
2024/04/03 07:09:37;;;;;;;4.40;1.70;;;;;;;11.61;100.00;98096.11;109452;1253;59836;-75
2024/04/03 07:12:04;;;;;;;6.00;1.80;;;;;;;11.71;100.00;98097.58;109488;1253;59963;-73
2024/04/03 07:14:31;;;;;;;4.10;1.00;;;;;;;11.78;100.00;98101.60;109477;1253;66835;-76
2024/04/03 07:16:57;;;;;;;4.30;1.10;;;;;;;11.78;100.00;98104.08;109539;1253;60204;-76
2024/04/03 07:19:24;;;;;;;1.90;0.90;;;;;;;11.79;100.00;98103.82;109498;1253;59847;-75
2024/04/03 07:21:51;;;;;;;1.50;0.70;;;;;;;11.80;100.00;98102.45;109450;1252;59822;-74
2024/04/03 07:24:17;;;;;;;3.00;0.80;;;;;;;11.79;100.00;98104.84;109484;1253;59975;-75
2024/04/03 07:26:45;;;;;;;5.50;1.10;;;;;;;11.80;100.00;98104.56;109423;1253;59823;-73
2024/04/03 07:29:14;;;;;;;1.20;0.80;;;;;;;11.85;100.00;98102.03;109485;1253;60611;-76
2024/04/03 07:31:41;;;;;;;1.30;0.70;;;;;;;11.94;100.00;98099.52;109464;1253;64199;-74
2024/04/03 07:34:08;;;;;;;2.50;0.90;;;;;;;12.00;100.00;98098.10;109093;1252;59899;-75
2024/04/03 07:36:34;;;;;;;2.20;0.80;;;;;;;12.04;100.00;98096.73;109564;1252;59766;-74
2024/04/03 07:39:02;;;;;;;3.90;1.00;;;;;;;12.07;100.00;98101.92;109522;1253;66649;-76
2024/04/03 07:41:30;;;;;;;3.50;0.90;;;;;;;12.14;100.00;98102.36;109515;1253;59717;-74
2024/04/03 07:43:57;;;;;;;3.10;1.00;;;;;;;12.20;100.00;98102.92;109476;1252;62420;-76
2024/04/03 07:46:23;;;;;;;4.50;1.20;;;;;;;12.25;100.00;98108.04;109457;1253;59795;-75
2024/04/03 07:48:50;;;;;;;1.60;0.70;;;;;;;12.32;100.00;98107.98;109489;1253;59910;-74
2024/04/03 07:51:18;;;;;;;2.90;1.10;;;;;;;12.41;100.00;98110.48;109468;1252;66938;-74
2024/04/03 07:53:44;;;;;;;2.70;0.60;;;;;;;12.60;100.00;98109.17;109517;1253;59952;-73
2024/04/03 07:56:12;;;;;;;5.00;1.30;;;;;;;12.87;100.00;98110.33;109347;1253;59928;-74
2024/04/03 07:58:40;;;;;;;2.90;1.10;;;;;;;13.14;100.00;98107.52;109500;1252;60422;-74
2024/04/03 08:01:06;;;;;;;4.30;1.10;;;;;;;13.32;100.00;98112.27;109472;1253;59825;-74
2024/04/03 08:03:33;;;;;;;3.80;1.00;;;;;;;13.41;100.00;98111.66;109505;1253;59889;-74
2024/04/03 08:05:59;;;;;;;2.70;1.10;;;;;;;13.41;100.00;98109.89;109526;1253;60229;-75
2024/04/03 08:08:28;;;;;;;4.10;1.30;;;;;;;13.33;100.00;98116.48;109446;1252;59889;-75
2024/04/03 08:11:04;;;;;;;4.20;1.00;;;;;;;13.27;100.00;98115.66;109473;1253;59745;-78
2024/04/03 08:13:30;;;;;;;2.70;1.20;;;;;;;13.24;100.00;98122.66;109309;1253;59872;-77
2024/04/03 08:16:02;;;;;;;4.00;1.30;;;;;;;13.27;100.00;98126.88;109437;1252;65631;-77
2024/04/03 08:18:29;;;;;;;4.60;1.60;;;;;;;13.30;100.00;98125.91;109254;1253;59865;-76
2024/04/03 08:21:03;;;;;;;4.40;1.60;;;;;;;13.28;100.00;98127.34;109454;1252;62780;-76
2024/04/03 08:23:33;;;;;;;5.00;1.00;;;;;;;13.14;100.00;98128.70;109460;1253;60124;-76
2024/04/03 08:26:06;;;;;;;3.90;1.10;;;;;;;13.10;100.00;98124.48;109371;1252;60312;-78
2024/04/03 08:28:36;;;;;;;3.60;0.80;;;;;;;13.08;100.00;98123.05;109481;1253;65594;-77
2024/04/03 08:31:09;;;;;;;4.10;0.90;;;;;;;13.10;100.00;98125.69;109475;1253;60112;-77
2024/04/03 08:33:36;;;;;;;5.50;1.20;;;;;;;13.13;100.00;98126.82;109409;1252;62863;-78
2024/04/03 08:36:02;;;;;;;3.00;0.70;;;;;;;13.16;100.00;98124.48;109505;1252;59876;-77
2024/04/03 08:38:29;;;;;;;3.20;1.20;;;;;;;13.21;100.00;98120.45;109330;1252;59947;-79
2024/04/03 08:40:56;;;;;;;3.00;0.80;;;;;;;13.28;100.00;98126.73;109479;1253;65461;-78
2024/04/03 08:43:24;;;;;;;3.70;0.90;;;;;;;13.37;100.00;98124.88;109213;1253;60416;-77
2024/04/03 08:45:53;;;;;;;3.80;0.90;;;;;;;13.47;100.00;98126.30;109447;1252;63864;-77
2024/04/03 08:48:21;;;;;;;2.40;0.60;;;;;;;13.46;100.00;98126.06;109313;1253;60223;-76
2024/04/03 08:50:57;;;;;;;3.00;0.80;;;;;;;13.45;100.00;98126.09;109474;1252;61083;-76
2024/04/03 08:53:24;;;;;;;3.60;1.20;;;;;;;13.48;100.00;98122.92;109487;1253;66917;-78
2024/04/03 08:55:55;;;;;;;3.10;1.10;;;;;;;13.57;100.00;98118.20;109478;1253;60034;-79
2024/04/03 08:58:22;;;;;;;4.30;0.90;;;;;;;13.76;100.00;98117.30;109463;1252;63760;-79
2024/04/03 09:00:52;;;;;;;3.30;1.00;;;;;;;13.92;100.00;98120.27;109448;1252;60031;-80
2024/04/03 09:03:21;;;;;;;3.70;1.00;;;;;;;13.98;99.85;98117.02;109502;1253;60094;-79
2024/04/03 09:05:52;;;;;;;3.70;1.10;;;;;;;13.97;99.78;98111.23;109539;1252;65791;-79
2024/04/03 09:08:19;;;;;;;3.20;0.90;;;;;;;14.01;98.64;98115.11;109464;1253;60116;-77
2024/04/03 09:10:56;;;;;;;3.10;1.00;;;;;;;14.07;97.05;98116.91;109477;1253;65114;-79
2024/04/03 09:13:23;;;;;;;3.90;0.60;;;;;;;14.14;94.20;98115.34;109317;1253;60160;-78
2024/04/03 09:15:53;;;;;;;4.30;0.80;;;;;;;14.18;92.55;98114.02;109491;1253;59699;-80
2024/04/03 09:18:20;;;;;;;5.50;1.00;;;;;;;14.29;91.72;98113.71;109484;1252;65294;-79
2024/04/03 09:20:54;;;;;;;3.50;0.80;;;;;;;14.37;90.44;98112.27;109532;1252;61312;-78
2024/04/03 09:23:21;;;;;;;6.50;1.40;;;;;;;14.31;89.38;98111.42;109122;1253;64473;-81
2024/04/03 09:25:50;;;;;;;2.70;1.10;;;;;;;14.27;91.62;98101.95;109517;1253;59897;-80
2024/04/03 09:28:16;;;;;;;4.80;1.70;;;;;;;14.32;91.32;98098.61;109493;1253;59839;-78
2024/04/03 09:30:48;;;;;;;4.20;1.50;;;;;;;14.36;92.16;98099.96;109124;1252;59813;-79
2024/04/03 09:33:16;;;;;;;2.70;1.20;;;;;;;14.40;92.00;98095.13;109351;1253;60797;-81
2024/04/03 09:35:43;;;;;;;2.90;1.00;;;;;;;14.48;93.04;98104.01;109509;1253;62639;-79
2024/04/03 09:38:16;;;;;;;3.90;1.10;;;;;;;14.52;90.07;98105.45;109470;1253;60102;-79
2024/04/03 09:40:48;;;;;;;3.20;1.50;;;;;;;14.50;89.32;98100.02;109525;1252;59700;-79
2024/04/03 09:43:23;;;;;;;2.80;1.10;;;;;;;14.53;90.08;98103.20;109531;1252;67371;-80
2024/04/03 09:45:52;;;;;;;2.20;1.00;;;;;;;14.68;89.01;98104.99;109143;1252;59876;-80
2024/04/03 09:48:28;;;;;;;2.80;0.70;;;;;;;14.82;84.77;98109.98;109165;1253;62543;-80
2024/04/03 09:50:55;;;;;;;3.80;0.70;;;;;;;14.91;83.49;98104.28;109554;1252;59826;-80
2024/04/03 09:53:24;;;;;;;3.10;0.90;;;;;;;14.94;81.81;98110.25;109598;1253;59802;-80
2024/04/03 09:55:52;;;;;;;4.60;0.70;;;;;;;14.97;81.47;98116.04;109103;1252;66766;-81
2024/04/03 09:58:21;;;;;;;1.90;0.70;;;;;;;15.06;81.42;98120.63;109321;1252;59793;-80
2024/04/03 10:00:52;;;;;;;2.90;1.20;;;;;;;15.21;79.87;98112.18;109386;1252;63896;-79
2024/04/03 10:03:23;;;;;;;2.20;0.90;;;;;;;15.38;80.57;98110.86;109389;1253;59769;-80
2024/04/03 10:06:12;;;;;;;3.00;0.90;;;;;;;15.49;82.04;98116.72;109564;1253;59760;-78
2024/04/03 10:08:45;;;;;;;2.80;0.90;;;;;;;15.50;80.57;98116.46;109456;1253;66924;-80
2024/04/03 10:11:14;;;;;;;3.50;0.80;;;;;;;15.54;79.65;98108.73;109315;1252;59864;-79
2024/04/03 10:13:44;;;;;;;2.60;0.70;;;;;;;15.78;80.25;98106.31;109452;1253;62813;-80
2024/04/03 10:16:13;;;;;;;4.80;1.30;;;;;;;16.04;78.32;98105.41;109482;1253;59798;-81
2024/04/03 10:18:49;;;;;;;2.50;1.00;;;;;;;16.19;79.04;98108.66;109402;1252;59906;-80
2024/04/03 10:21:15;;;;;;;3.20;1.10;;;;;;;16.42;79.18;98109.30;109529;1252;66290;-80
2024/04/03 10:23:50;;;;;;;2.20;0.90;;;;;;;16.59;76.35;98107.70;109230;1252;61619;-80
2024/04/03 10:26:18;;;;;;;2.10;0.70;;;;;;;16.55;75.16;98105.27;109481;1253;63893;-81
2024/04/03 10:28:45;;;;;;;1.50;0.80;;;;;;;16.52;74.75;98105.24;109524;1252;59774;-80
2024/04/03 10:31:19;;;;;;;3.00;1.10;;;;;;;16.54;74.44;98100.20;109501;1253;59898;-81
2024/04/03 10:33:48;;;;;;;3.70;1.00;;;;;;;16.44;74.48;98103.89;109508;1253;65271;-80
2024/04/03 10:36:15;;;;;;;4.20;0.90;;;;;;;16.55;75.24;98099.88;109502;1253;59935;-79
2024/04/03 10:38:42;;;;;;;1.70;0.60;;;;;;;16.47;75.44;98099.48;109333;1253;65043;-79
2024/04/03 10:41:09;;;;;;;2.80;1.20;;;;;;;16.55;75.54;98096.08;109541;1252;59908;-77
2024/04/03 10:43:36;;;;;;;4.30;1.60;;;;;;;16.63;75.12;98097.96;109496;1253;59728;-80
2024/04/03 10:46:05;;;;;;;2.10;0.80;;;;;;;16.54;74.73;98109.29;109133;1252;65317;-80
2024/04/03 10:48:32;;;;;;;2.80;0.80;;;;;;;16.66;75.58;98107.14;109515;1253;60888;-80
2024/04/03 10:50:58;;;;;;;0.90;0.60;;;;;;;16.73;74.49;98106.89;109501;1253;63744;-78
2024/04/03 10:53:24;;;;;;;2.50;1.00;;;;;;;16.57;74.96;98105.59;109512;1253;59792;-78
2024/04/03 10:55:51;;;;;;;2.30;1.00;;;;;;;16.39;74.36;98108.55;109521;1252;59879;-79
2024/04/03 10:58:20;;;;;;;2.00;1.00;;;;;;;16.07;74.64;98112.33;109515;1252;66963;-81
2024/04/03 11:00:46;;;;;;;3.20;1.00;;;;;;;15.79;74.96;98121.01;109368;1253;59842;-76
2024/04/03 11:03:14;;;;;;;2.50;0.90;;;;;;;15.55;75.22;98122.95;109359;1252;59884;-80
2024/04/03 11:05:41;;;;;;;5.20;0.90;;;;;;;15.60;76.53;98124.03;109432;1253;59736;-80
2024/04/03 11:08:11;;;;;;;3.90;1.10;;;;;;;15.77;78.03;98121.92;109495;1252;59735;-80
2024/04/03 11:10:37;;;;;;;2.20;0.90;;;;;;;15.67;76.79;98124.97;109473;1253;66930;-79
2024/04/03 11:13:09;;;;;;;3.50;1.00;;;;;;;15.58;77.41;98129.83;109187;1253;59856;-79
2024/04/03 11:15:37;;;;;;;2.00;0.80;;;;;;;15.70;77.74;98130.60;109481;1252;63867;-80
2024/04/03 11:18:07;;;;;;;2.90;0.60;;;;;;;15.76;77.23;98133.75;109459;1252;59831;-80
2024/04/03 11:20:34;;;;;;;4.80;1.00;;;;;;;15.91;76.33;98128.27;109384;1253;59836;-80
2024/04/03 11:23:01;;;;;;;2.30;0.80;;;;;;;16.14;76.41;98126.44;109505;1252;76784;-80
2024/04/03 11:25:29;;;;;;;2.80;1.00;;;;;;;16.48;76.98;98124.86;109528;1252;61405;-80
2024/04/03 11:28:00;;;;;;;2.60;0.90;;;;;;;16.77;76.12;98119.77;109504;1253;63779;-81